Angleton, TX (77515)

10:17 PM CST on December 07, 2016 (GMT -0600)
Angleton | | Change Station
Active Advisory: Wind Advisory

Elev 0 ft 29.17 °N, 95.43 °W | Updated 9 minutes ago

Overcast
Overcast
60.4 °F
Feels Like 60.4 °F
N
0.0
Wind Variable Wind from North
Gusts 0.6 mph

Today
High -- | Low -- °F
--% Chance of Precip.
Yesterday
High -- | Low -- °F
Precip. -- in
Pressure 30.12 in
Visibility 9.0 miles
Clouds Overcast 1000 ft
Dew Point 59 °F
Humidity 94%
Rainfall 0.00 in
Snow Depth Not available.
7:03 AM 5:23 PM
First Quarter, 59% visible
METAR KLBX 080353Z AUTO 04007KT 9SM OVC010 16/14 A3012 RMK AO2 SLP198 T01610139
Pressure 30.12 in
Visibility 9.0 miles
Clouds Overcast 1000 ft
Dew Point 59 °F
Humidity 94%
Rainfall 0.00 in
Snow Depth Not available.
7:03 AM 5:23 PM
First Quarter, 59% visible
METAR KLBX 080353Z AUTO 04007KT 9SM OVC010 16/14 A3012 RMK AO2 SLP198 T01610139

10-Day Weather Forecast

Almanac

Astronomy

Dec. 07, 2016 Rise Set
Actual Time
Civil Twilight
Nautical Twilight
Astronomical Twilight
Moon
Length of Visible Light
Length of Day
Tomorrow will be .
, % of the Moon is Illuminated

Today's Extremes

State Highs State Lows

Community

WunderPhotos

Upload Photos

1,956,259 photos uploaded!

WunderBlog® & News

Nearby

Air Quality

  Air Quality AQ Index Pollutant
Not available.

Snow Depth

Station Depth Elevation

Earthquake Activity

City Distance Mag. Time & Date
Minimum magnitude displayed is 2.5.

Coastal Water Temperatures

Place Temperature

Stations

Nearby Weather Stations

Station Location Temp. Windchill Dew Point Humidity Wind Precip. Elev Updated Type
                   

Watches & Warnings

Wind Advisory
Issued: 3:55 PM CST Dec. 7, 2016 – National Weather Service

... Wind Advisory in effect from 6 am to 6 PM CST Thursday...

The National Weather Service in Houston/Galveston has issued a
Wind Advisory... which is in effect from 6 am to 6 PM CST
Thursday.

* Event... north winds 20 to 30 mph with gusts of 35 mph.

* Timing... 6 am CST to 6 PM CST Thursday

* impact... windy conditions could impact travel on area highways
for high profile vehicles. Any outdoor tents... canopies or
bounce houses will need to be secured.

Precautionary/preparedness actions...

Drivers of vans... campers... trailers... and other high-profile
vehicles should be alert to the danger of these winds...
especially when driving along east to west oriented roads.